Clear Spring, Maryland
Current Conditions -  °F | °C
As of 2:53 AM on Tuesday 21 Oct 2014 (Local Time) from KHGR Reporting Station
Overcast Overcast  
Wind Chill: 53°   Ceiling: 4900
Heat Index: 53°   Visibility: 10mi
Dew Point: 49°   Wind: 0mph
Humidity: 86%   Direction: NA
Pressure: 29.87"   Gusts: NA
Location:  39.66°N, 77.93°W
Report Text: KHGR 210653Z AUTO 00000KT 10SM BKN049 OVC055 12/09 A2987 RMK AO2 SLP125 T01170094
Loading
Personal Weather Stations






























Interactive Weather Map
Tropical Storm Tracking
New forecast layout! Learn more

10-Day Weather Forecast

Advertisements
Track Severe Weather on mobile